Terminal Aerodrome Forecast
Issued by NWS Grand Forks, ND

Home | Current Version | Previous Version | Text Only | Print | Product List | Glossary Off
Versions: 1 2 3 4 5 6 7 8 9 10 11 12 13 14 15 16 17 18 19

000
FTUS43 KFGF 202331
TAFFAR
TAF
KFAR 202331Z 2100/2124 28012KT P6SM SCT040
     FM210600 23005KT 1/2SM FG SCT008
     FM211300 18009KT 3SM BR BKN040
     FM211500 20011KT P6SM SCT120=

USA.gov is the U.S. government's official web portal to all federal, state and local government web resources and services.